ENSH

Svolvær Helle Airport

Svolvær, Norway
METAR ENSH 201450Z 06014KT CAVOK M03/M09 Q1026 RMK WIND 150FT 06024KT
Observed Flight Rules
Feb-20 @ 14:50 UTC (2 hours ago) Visual Flight Rules
Wind Visibility Clouds
60° at 14 knots 10,000+ meters
  • Clear skies
Temperatures Readings
Current -3°C / 27°F
Dewpoint -9°C / 16°F
Humidity 64%
Altimeter 30.3" Hg
Pressure 1026 hPa
Elevation 9
METAR ENSH 201450Z 06014KT CAVOK M03/M09 Q1026 RMK WIND 150FT 06024KT
Observed Flight Rules
Feb-20 @ 14:50 UTC
(2 hours ago)
VFR
Wind Visibility
60° at 14 knots 10,000+ meters
Clouds
  • Clear skies
Temperature Dewpoint
-3°C / 27°F -9°C / 16°F
Humidity Altimeter Pressure
64% 30.3" Hg 1026 hPa